Map

Track Data

SID SEASON NUMBER BASIN SUBBASIN NAME ISO_TIME NATURE LAT LON WMO_WIND WMO_PRES WMO_AGENCY TRACK_TYPE DIST2LAND LANDFALL IFLAG USA_AGENCY USA_ATCF_ID USA_LAT USA_LON USA_RECORD USA_STATUS USA_WIND USA_PRES USA_SSHS USA_R34_NE USA_R34_SE USA_R34_SW USA_R34_NW USA_R50_NE USA_R50_SE USA_R50_SW USA_R50_NW USA_R64_NE USA_R64_SE USA_R64_SW USA_R64_NW USA_POCI USA_ROCI USA_RMW USA_EYE TOKYO_LAT TOKYO_LON TOKYO_GRADE TOKYO_WIND TOKYO_PRES TOKYO_R50_DIR TOKYO_R50_LONG TOKYO_R50_SHORT TOKYO_R30_DIR TOKYO_R30_LONG TOKYO_R30_SHORT TOKYO_LAND CMA_LAT CMA_LON CMA_CAT CMA_WIND CMA_PRES HKO_LAT HKO_LON HKO_CAT HKO_WIND HKO_PRES NEWDELHI_LAT NEWDELHI_LON NEWDELHI_GRADE NEWDELHI_WIND NEWDELHI_PRES NEWDELHI_CI NEWDELHI_DP NEWDELHI_POCI REUNION_LAT REUNION_LON REUNION_TYPE REUNION_WIND REUNION_PRES REUNION_TNUM REUNION_CI REUNION_RMW REUNION_R34_NE REUNION_R34_SE REUNION_R34_SW REUNION_R34_NW REUNION_R50_NE REUNION_R50_SE REUNION_R50_SW REUNION_R50_NW REUNION_R64_NE REUNION_R64_SE REUNION_R64_SW REUNION_R64_NW BOM_LAT BOM_LON BOM_TYPE BOM_WIND BOM_PRES BOM_TNUM BOM_CI BOM_RMW BOM_R34_NE BOM_R34_SE BOM_R34_SW BOM_R34_NW BOM_R50_NE BOM_R50_SE BOM_R50_SW BOM_R50_NW BOM_R64_NE BOM_R64_SE BOM_R64_SW BOM_R64_NW BOM_ROCI BOM_POCI BOM_EYE BOM_POS_METHOD BOM_PRES_METHOD NADI_LAT NADI_LON NADI_CAT NADI_WIND NADI_PRES WELLINGTON_LAT WELLINGTON_LON WELLINGTON_WIND WELLINGTON_PRES DS824_LAT DS824_LON DS824_STAGE DS824_WIND DS824_PRES TD9636_LAT TD9636_LON TD9636_STAGE TD9636_WIND TD9636_PRES TD9635_LAT TD9635_LON TD9635_WIND TD9635_PRES TD9635_ROCI NEUMANN_LAT NEUMANN_LON NEUMANN_CLASS NEUMANN_WIND NEUMANN_PRES MLC_LAT MLC_LON MLC_CLASS MLC_WIND MLC_PRES USA_GUST BOM_GUST BOM_GUST_PER REUNION_GUST REUNION_GUST_PER USA_SEAHGT USA_SEARAD_NE USA_SEARAD_SE USA_SEARAD_SW USA_SEARAD_NW STORM_SPEED STORM_DIR
1920352S11147 1921 55 SP EA NOT_NAMED 1920-12-16 23:00:00 NR -10.6000 146.500 bom main 139 139 ______O_______ -1 -10.6000 146.500 7 275
1920352S11147 1921 55 SP EA NOT_NAMED 1920-12-17 00:00:00 TS -10.5908 146.384 main 145 145 ______P__O____ -1 -10.5862 146.376 -10.6000 146.400 TC 7 276
1920352S11147 1921 55 SP EA NOT_NAMED 1920-12-17 03:00:00 NR -10.5452 146.003 main 164 164 ______P__P____ -1 -10.5452 146.003 -10.6104 145.948 TC 7 277
1920352S11147 1921 55 SP EA NOT_NAMED 1920-12-17 06:00:00 NR -10.5060 145.628 main 195 195 ______P__P____ -1 -10.5060 145.628 -10.6201 145.498 TC 7 276
1920352S11147 1921 55 SP EA NOT_NAMED 1920-12-17 09:00:00 NR -10.4704 145.250 main 227 227 ______P__P____ -1 -10.4704 145.250 -10.6292 145.049 TC 8 275
1920352S11147 1921 55 SP EA NOT_NAMED 1920-12-17 12:00:00 NR -10.4399 144.867 main 227 197 ______P__P____ -1 -10.4399 144.867 -10.6376 144.604 TC 8 274
1920352S11147 1921 55 SP EA NOT_NAMED 1920-12-17 15:00:00 NR -10.4164 144.478 main 197 162 ______P__P____ -1 -10.4164 144.478 -10.6455 144.164 TC 8 273
1920352S11147 1921 55 SP EA NOT_NAMED 1920-12-17 18:00:00 NR -10.4014 144.082 main 162 125 ______P__P____ -1 -10.4014 144.082 -10.6527 143.730 TC 8 271
1920352S11147 1921 55 SP EA NOT_NAMED 1920-12-17 21:00:00 NR -10.3967 143.676 main 125 101 ______P__P____ -1 -10.3967 143.676 -10.6593 143.303 TC 8 270
1920352S11147 1921 55 SP EA NOT_NAMED 1920-12-17 23:00:00 NR -10.4000 143.400 bom main 101 93 ______O__P____ -1 -10.4000 143.400 -10.6634 143.023 TC 8 269
1920352S11147 1921 55 SP EA NOT_NAMED 1920-12-18 00:00:00 NR -10.4038 143.260 main 93 62 ______P__P____ -1 -10.4038 143.260 -10.6654 142.885 TC 8 268
1920352S11147 1921 55 SP EA NOT_NAMED 1920-12-18 03:00:00 NR -10.4229 142.834 main 55 33 ______P__P____ -1 -10.4229 142.834 -10.6709 142.477 TC 8 267
1920352S11147 1921 55 SP EA NOT_NAMED 1920-12-18 06:00:00 NR -10.4519 142.403 main 33 33 ______P__P____ -1 -10.4519 142.403 -10.6760 142.079 TC 9 266
1920352S11147 1921 55 SP EA NOT_NAMED 1920-12-18 09:00:00 NR -10.4885 141.970 main 55 55 ______P__P____ -1 -10.4885 141.970 -10.6807 141.695 TC 9 265
1920352S11147 1921 55 SP EA NOT_NAMED 1920-12-18 12:00:00 NR -10.5304 141.540 main 86 86 ______P__P____ -1 -10.5304 141.540 -10.6851 141.324 TC 8 264
1920352S11147 1921 55 SP EA NOT_NAMED 1920-12-18 15:00:00 NR -10.5754 141.117 main 118 118 ______P__P____ -1 -10.5754 141.117 -10.6891 140.967 TC 8 264
1920352S11147 1921 55 SP EA NOT_NAMED 1920-12-18 18:00:00 NR -10.6212 140.707 main 159 159 ______P__P____ -1 -10.6212 140.707 -10.6929 140.627 TC 8 263
1920352S11147 1921 55 SP EA NOT_NAMED 1920-12-18 21:00:00 NR -10.6656 140.313 main 189 189 ______P__P____ -1 -10.6656 140.313 -10.6965 140.304 TC 8 264
1920352S11147 1921 55 SP EA NOT_NAMED 1920-12-18 23:30:00 NR -10.7000 140.000 bom main 206 206 ______O__P____ -1 -10.7000 140.000 -10.6994 140.049 TC 7 264
1920352S11147 1921 55 SP EA NOT_NAMED 1920-12-19 00:00:00 TS -10.7041 139.956 main 206 206 ______P__O____ -1 -10.7052 139.945 -10.7000 140.000 TC 6 266
1920352S11147 1921 55 SP EA NOT_NAMED 1920-12-19 03:00:00 TS -10.7247 139.656 main 227 227 ______P__P____ -1 -10.7351 139.627 -10.7038 139.714 TC 6 266
1920352S11147 1921 55 SP EA NOT_NAMED 1920-12-19 06:00:00 TS -10.7405 139.377 main 250 250 ______P__P____ -1 -10.7636 139.330 -10.7097 139.440 TC 5 267
1920352S11147 1921 55 SP EA NOT_NAMED 1920-12-19 09:00:00 TS -10.7551 139.108 main 276 258 ______P__P____ -1 -10.7906 139.046 -10.7196 139.169 TC 5 266
1920352S11147 1921 55 SP EA NOT_NAMED 1920-12-19 12:00:00 TS -10.7759 138.831 main 258 242 ______P__P____ -1 -10.8162 138.767 -10.7356 138.895 TC 6 265
1920352S11147 1921 55 SP EA NOT_NAMED 1920-12-19 15:00:00 TS -10.8000 138.547 main 234 219 ______P__P____ -1 -10.8402 138.485 -10.7597 138.609 TC 6 265
1920352S11147 1921 55 SP EA NOT_NAMED 1920-12-19 18:00:00 TS -10.8283 138.248 main 212 184 ______P__P____ -1 -10.8628 138.192 -10.7939 138.303 TC 6 264
1920352S11147 1921 55 SP EA NOT_NAMED 1920-12-19 21:00:00 TS -10.8650 137.918 main 184 169 ______P__P____ -1 -10.8838 137.880 -10.8400 137.970 TC 7 264
1920352S11147 1921 55 SP EA NOT_NAMED 1920-12-19 23:30:00 TS -10.8963 137.621 bom main 169 169 ______O__P____ -1 -10.9000 137.600 -10.8890 137.664 TC 7 264
1920352S11147 1921 55 SP EA NOT_NAMED 1920-12-20 00:00:00 TS -10.9003 137.561 main 169 150 ______P__O____ -1 -10.9003 137.551 -10.9000 137.600 TC 6 270
1920352S11147 1921 55 SP EA NOT_NAMED 1920-12-20 03:00:00 NR -10.8986 137.258 main 150 134 ______P__P____ -1 -10.8986 137.258 -10.9556 137.142 TC 6 271
1920352S11147 1921 55 SP EA NOT_NAMED 1920-12-20 06:00:00 NR -10.8934 136.950 main 130 123 ______P__P____ -1 -10.8934 136.950 -11.0211 136.638 TC 6 271
1920352S11147 1921 55 SP EA NOT_NAMED 1920-12-20 09:00:00 NR -10.8889 136.613 main 123 123 ______P__P____ -1 -10.8889 136.613 -11.0967 136.093 TC 7 270
1920352S11147 1921 55 SP EA NOT_NAMED 1920-12-20 12:00:00 NR -10.8889 136.233 main 127 127 ______P__P____ -1 -10.8889 136.233 -11.1828 135.512 TC 8 269
1920352S11147 1921 55 SP EA NOT_NAMED 1920-12-20 15:00:00 NR -10.8974 135.794 main 134 134 ______P__P____ -1 -10.8974 135.794 -11.2799 134.900 TC 9 268
1920352S11147 1921 55 SP EA NOT_NAMED 1920-12-20 18:00:00 NR -10.9182 135.281 main 138 123 ______P__P____ -1 -10.9182 135.281 -11.3881 134.262 TC 11 267
1920352S11147 1921 55 SI WA NOT_NAMED 1920-12-20 21:00:00 NR -10.9548 134.680 main 123 95 ______P__P____ -1 -10.9548 134.680 -11.5080 133.602 TC 13 266
1920352S11147 1921 55 SI WA NOT_NAMED 1920-12-20 23:30:00 NR -11.0000 134.100 bom main 95 92 ______O__P____ -1 -11.0000 134.100 -11.6172 133.040 TC 14 266
1920352S11147 1921 55 SI WA NOT_NAMED 1920-12-21 00:00:00 NR -11.0016 133.975 main 92 55 ______P__P____ -1 -11.0016 133.975 -11.6401 132.926 TC 16 268
1920352S11147 1921 55 SI WA NOT_NAMED 1920-12-21 03:00:00 NR -11.0283 133.169 main 55 11 ______P__P____ -1 -11.0283 133.169 -11.7847 132.238 TC 17 265
1920352S11147 1921 55 SI WA NOT_NAMED 1920-12-21 06:00:00 NR -11.1347 132.298 main 11 0 ______P__P____ -1 -11.1347 132.298 -11.9424 131.544 TC 17 261
1920352S11147 1921 55 SI WA NOT_NAMED 1920-12-21 07:00:00 NR -11.2000 132.000 bom main 0 0 ______O__P____ -1 -11.2000 132.000 -11.9980 131.311 TC 18 255
1920352S11147 1921 55 SI WA NOT_NAMED 1920-12-21 09:00:00 NR -11.3785 131.399 main 0 0 ______P__P____ -1 -11.3785 131.399 -12.1139 130.847 TC 19 251
1920352S11147 1921 55 SI WA NOT_NAMED 1920-12-21 11:00:00 NR -11.6000 130.800 bom main 0 0 ______O__P____ -1 -11.6000 130.800 -12.2361 130.384 TC 19 249
1920352S11147 1921 55 SI WA NOT_NAMED 1920-12-21 12:00:00 NR -11.7126 130.507 main 0 0 ______P__P____ -1 -11.7126 130.507 -12.2996 130.153 TC 18 247
1920352S11147 1921 55 SI WA NOT_NAMED 1920-12-21 15:00:00 NR -12.0830 129.652 main 54 54 ______P__P____ -1 -12.0830 129.652 -12.5003 129.467 TC 18 245
1920352S11147 1921 55 SI WA NOT_NAMED 1920-12-21 18:00:00 NR -12.4820 128.841 main 151 144 ______P__P____ -1 -12.4820 128.841 -12.7168 128.792 TC 17 242
1920352S11147 1921 55 SI WA NOT_NAMED 1920-12-21 21:00:00 NR -12.8831 128.084 main 144 79 ______P__P____ -1 -12.8831 128.084 -12.9497 128.135 TC 16 241
1920352S11147 1921 55 SI WA NOT_NAMED 1920-12-21 23:30:00 NR -13.2000 127.500 992 bom main 79 74 ______O__P____ -1 -13.2000 127.500 992 4 -13.1570 127.604 TC 15 241
1920352S11147 1921 55 SI WA NOT_NAMED 1920-12-22 00:00:00 TS -13.2340 127.423 main 74 44 ______P__O____ -1 -13.2425 127.404 -13.2000 127.500 TC 45 992 11 253
1920352S11147 1921 55 SI WA NOT_NAMED 1920-12-22 03:00:00 TS -13.3885 126.869 main 44 44 ______P__P____ -1 -13.4552 126.903 -13.2551 126.802 TC 11 257
1920352S11147 1921 55 SI WA NOT_NAMED 1920-12-22 06:00:00 TS -13.4866 126.331 main 55 49 ______P__P____ -1 -13.6155 126.501 -13.3148 126.105 TC 11 260
1920352S11147 1921 55 SI WA NOT_NAMED 1920-12-22 09:00:00 TS -13.5754 125.789 main 55 55 ______P__P____ -1 -13.7515 126.156 -13.3993 125.423 TC 10 257
1920352S11147 1921 55 SI WA NOT_NAMED 1920-12-22 12:00:00 TS -13.7098 125.297 main 74 70 ______P__P____ -1 -13.8910 125.825 -13.5287 124.768 TC 10 252
1920352S11147 1921 55 SI WA NOT_NAMED 1920-12-22 15:00:00 TS -13.8924 124.809 main 89 86 ______P__P____ -1 -14.0614 125.466 -13.7234 124.153 TC 11 245
1920352S11147 1921 55 SI WA NOT_NAMED 1920-12-22 18:00:00 TS -14.1470 124.312 main 111 106 ______P__P____ -1 -14.2899 125.035 -14.0040 123.589 TC 12 239
1920352S11147 1921 55 SI WA NOT_NAMED 1920-12-22 21:00:00 TS -14.4974 123.789 main 133 132 ______P__P____ -1 -14.6037 124.487 -14.3912 123.090 TC 13 232
1920352S11147 1921 55 SI WA NOT_NAMED 1920-12-23 00:00:00 TS -14.9673 123.223 main 144 138 ______P__P____ -1 -15.0290 123.780 -14.9056 122.666 TC 15 228
1920352S11147 1921 55 SI WA NOT_NAMED 1920-12-23 01:00:00 TS -15.1545 123.022 bom main 134 116 ______O__P____ -1 -15.2000 123.500 -15.1089 122.545 TC 17 228
1920352S11147 1921 55 SI WA NOT_NAMED 1920-12-23 03:00:00 TS -15.5480 122.556 main 116 92 ______P__P____ -1 -15.5279 122.780 -15.5682 122.332 TC 18 222
1920352S11147 1921 55 SI WA NOT_NAMED 1920-12-23 05:00:00 TS -16.0513 122.183 bom main 85 78 ______O__P____ -1 -16.0000 122.200 -16.1026 122.165 TC 19 209
1920352S11147 1921 55 SI WA NOT_NAMED 1920-12-23 06:00:00 TS -16.3826 122.068 main 70 23 ______P__O____ -1 -16.3653 122.037 -16.4000 122.100 TC 23 190
1920352S11147 1921 55 SI WA NOT_NAMED 1920-12-23 09:00:00 TS -17.5266 121.904 main 23 21 ______P__P____ -1 -17.6421 121.895 -17.4110 121.912 TC 23 186
1920352S11147 1921 55 SI WA NOT_NAMED 1920-12-23 10:00:00 TS -17.8853 121.892 bom main 31 0 ______O__P____ -1 -18.0000 121.900 -17.7707 121.884 TC 20 0
1920352S11147 1921 55 SI WA NOT_NAMED 1920-12-23 12:00:00 TS -18.5000 121.900 bom main 0 0 ______O__O____ -1 -18.5000 121.900 -18.5000 121.900 TC 21 172
1920352S11147 1921 55 SI WA NOT_NAMED 1920-12-23 15:00:00 TS -19.6426 122.156 main 0 0 ______P__P____ -1 -19.7073 122.181 -19.5780 122.130 TC 24 165
1920352S11147 1921 55 SI WA NOT_NAMED 1920-12-23 17:00:00 TS -20.4418 122.451 bom main 0 0 ______O__P____ -1 -20.6000 122.500 -20.2835 122.402 TC 26 160
1920352S11147 1921 55 SI WA NOT_NAMED 1920-12-23 18:00:00 TS -20.8416 122.628 main 0 0 ______P__P____ -1 -20.9980 122.674 -20.6331 122.567 TC 24 154
1920352S11147 1921 55 SI WA NOT_NAMED 1920-12-23 21:00:00 TS -21.8564 123.193 main 0 0 ______P__P____ -1 -21.9795 123.225 -21.6717 123.145 TC 22 150
1920352S11147 1921 55 SI WA NOT_NAMED 1920-12-24 00:00:00 TS -22.7394 123.802 main 0 0 ______P__O____ -1 -22.7591 123.804 -22.7000 123.800 TC 21 147
1920352S11147 1921 55 SI WA NOT_NAMED 1920-12-24 01:00:00 NR -23.0000 124.000 bom main 0 ______O_______ -1 -23.0000 124.000 TC 19 145

Digital Typhoon Data and Search

About IBTrACS Database

This database is a web-friendly format of International Best Track Archive for Climate Stewardship (IBTrACS), a global best track data archive curated by NOAA dating back to 1842.

Updated: 2021-10-25